sensor_id;sensor_type;location;lat;lon;timestamp;temperature;humidity
22787;DHT22;63134;52.020;4.714;2023-08-06T00:02:19;17.10;93.90
22787;DHT22;63134;52.020;4.714;2023-08-06T00:05:05;17.10;93.90
22787;DHT22;63134;52.020;4.714;2023-08-06T00:07:50;17.10;94.00
22787;DHT22;63134;52.020;4.714;2023-08-06T00:10:36;17.10;94.10
22787;DHT22;63134;52.020;4.714;2023-08-06T00:13:21;17.10;94.10
22787;DHT22;63134;52.020;4.714;2023-08-06T00:16:10;17.10;94.10
22787;DHT22;63134;52.020;4.714;2023-08-06T00:18:56;17.10;94.10
22787;DHT22;63134;52.020;4.714;2023-08-06T00:21:41;17.10;94.20
22787;DHT22;63134;52.020;4.714;2023-08-06T00:24:27;17.10;94.10
22787;DHT22;63134;52.020;4.714;2023-08-06T00:27:13;17.10;94.10
22787;DHT22;63134;52.020;4.714;2023-08-06T00:30:02;17.20;94.00
22787;DHT22;63134;52.020;4.714;2023-08-06T00:32:48;17.10;94.00
22787;DHT22;63134;52.020;4.714;2023-08-06T00:35:38;17.10;94.00
22787;DHT22;63134;52.020;4.714;2023-08-06T00:38:24;17.10;94.10
22787;DHT22;63134;52.020;4.714;2023-08-06T00:41:09;17.10;94.20
22787;DHT22;63134;52.020;4.714;2023-08-06T00:43:55;17.10;94.20
22787;DHT22;63134;52.020;4.714;2023-08-06T00:46:40;17.10;94.30
22787;DHT22;63134;52.020;4.714;2023-08-06T00:49:26;17.10;94.30
22787;DHT22;63134;52.020;4.714;2023-08-06T00:52:11;17.10;94.40
22787;DHT22;63134;52.020;4.714;2023-08-06T00:54:59;17.10;94.50
22787;DHT22;63134;52.020;4.714;2023-08-06T00:57:44;17.10;94.50
22787;DHT22;63134;52.020;4.714;2023-08-06T01:00:30;17.20;94.50
22787;DHT22;63134;52.020;4.714;2023-08-06T01:03:16;17.10;94.50
22787;DHT22;63134;52.020;4.714;2023-08-06T01:06:05;17.20;94.60
22787;DHT22;63134;52.020;4.714;2023-08-06T01:09:02;17.20;94.60
22787;DHT22;63134;52.020;4.714;2023-08-06T01:12:05;17.10;94.50
22787;DHT22;63134;52.020;4.714;2023-08-06T01:15:02;17.20;94.60
22787;DHT22;63134;52.020;4.714;2023-08-06T01:17:52;17.20;94.50
22787;DHT22;63134;52.020;4.714;2023-08-06T01:20:38;17.20;94.50
22787;DHT22;63134;52.020;4.714;2023-08-06T01:23:24;17.10;94.50
22787;DHT22;63134;52.020;4.714;2023-08-06T01:29:23;17.10;94.60
22787;DHT22;63134;52.020;4.714;2023-08-06T01:32:12;17.10;95.00
22787;DHT22;63134;52.020;4.714;2023-08-06T01:35:00;17.10;94.80
22787;DHT22;63134;52.020;4.714;2023-08-06T01:37:51;17.10;94.80
22787;DHT22;63134;52.020;4.714;2023-08-06T01:40:37;17.20;95.00
22787;DHT22;63134;52.020;4.714;2023-08-06T01:43:23;17.20;94.90
22787;DHT22;63134;52.020;4.714;2023-08-06T01:46:08;17.10;94.90
22787;DHT22;63134;52.020;4.714;2023-08-06T01:48:54;17.20;94.80
22787;DHT22;63134;52.020;4.714;2023-08-06T01:51:39;17.10;94.90
22787;DHT22;63134;52.020;4.714;2023-08-06T01:54:25;17.20;95.10
22787;DHT22;63134;52.020;4.714;2023-08-06T01:57:10;17.20;95.20
22787;DHT22;63134;52.020;4.714;2023-08-06T01:59:56;17.20;95.10
22787;DHT22;63134;52.020;4.714;2023-08-06T02:02:42;17.20;95.10
22787;DHT22;63134;52.020;4.714;2023-08-06T02:05:28;17.30;95.20
22787;DHT22;63134;52.020;4.714;2023-08-06T02:08:13;17.30;95.00
22787;DHT22;63134;52.020;4.714;2023-08-06T02:10:59;17.30;95.10
22787;DHT22;63134;52.020;4.714;2023-08-06T02:13:45;17.30;95.10
22787;DHT22;63134;52.020;4.714;2023-08-06T02:16:35;17.30;95.30
22787;DHT22;63134;52.020;4.714;2023-08-06T02:19:21;17.30;95.10
22787;DHT22;63134;52.020;4.714;2023-08-06T02:22:07;17.30;95.20
22787;DHT22;63134;52.020;4.714;2023-08-06T02:24:52;17.30;95.20
22787;DHT22;63134;52.020;4.714;2023-08-06T02:27:37;17.30;95.10
22787;DHT22;63134;52.020;4.714;2023-08-06T02:30:24;17.30;95.10
22787;DHT22;63134;52.020;4.714;2023-08-06T02:33:18;17.30;95.20
22787;DHT22;63134;52.020;4.714;2023-08-06T02:36:04;17.30;95.10
22787;DHT22;63134;52.020;4.714;2023-08-06T02:38:50;17.20;95.00
22787;DHT22;63134;52.020;4.714;2023-08-06T02:41:36;17.20;95.20
22787;DHT22;63134;52.020;4.714;2023-08-06T02:44:21;17.20;95.20
22787;DHT22;63134;52.020;4.714;2023-08-06T02:47:07;17.20;95.10
22787;DHT22;63134;52.020;4.714;2023-08-06T02:49:53;17.20;95.30
22787;DHT22;63134;52.020;4.714;2023-08-06T02:52:38;17.20;95.50
22787;DHT22;63134;52.020;4.714;2023-08-06T02:55:26;17.10;95.60
22787;DHT22;63134;52.020;4.714;2023-08-06T02:58:11;17.20;95.80
22787;DHT22;63134;52.020;4.714;2023-08-06T03:01:04;17.20;95.60
22787;DHT22;63134;52.020;4.714;2023-08-06T03:03:58;17.10;95.40
22787;DHT22;63134;52.020;4.714;2023-08-06T03:06:50;17.10;95.60
22787;DHT22;63134;52.020;4.714;2023-08-06T03:09:40;17.00;95.60
22787;DHT22;63134;52.020;4.714;2023-08-06T03:12:26;17.00;95.80
22787;DHT22;63134;52.020;4.714;2023-08-06T03:15:12;17.00;96.10
22787;DHT22;63134;52.020;4.714;2023-08-06T03:18:00;16.90;96.10
22787;DHT22;63134;52.020;4.714;2023-08-06T03:20:46;16.80;96.30
22787;DHT22;63134;52.020;4.714;2023-08-06T03:23:33;16.90;96.60
22787;DHT22;63134;52.020;4.714;2023-08-06T03:26:20;16.90;96.90
22787;DHT22;63134;52.020;4.714;2023-08-06T03:29:05;16.90;97.00
22787;DHT22;63134;52.020;4.714;2023-08-06T03:31:52;16.90;97.10
22787;DHT22;63134;52.020;4.714;2023-08-06T03:34:42;16.90;97.10
22787;DHT22;63134;52.020;4.714;2023-08-06T03:37:28;16.90;97.30
22787;DHT22;63134;52.020;4.714;2023-08-06T03:40:14;16.80;97.30
22787;DHT22;63134;52.020;4.714;2023-08-06T03:42:59;16.90;97.50
22787;DHT22;63134;52.020;4.714;2023-08-06T03:45:45;16.80;97.60
22787;DHT22;63134;52.020;4.714;2023-08-06T03:48:30;16.80;97.70
22787;DHT22;63134;52.020;4.714;2023-08-06T03:51:19;16.80;97.60
22787;DHT22;63134;52.020;4.714;2023-08-06T03:54:06;16.80;97.90
22787;DHT22;63134;52.020;4.714;2023-08-06T03:56:51;16.80;97.90
22787;DHT22;63134;52.020;4.714;2023-08-06T03:59:37;16.80;98.00
22787;DHT22;63134;52.020;4.714;2023-08-06T04:02:25;16.80;98.20
22787;DHT22;63134;52.020;4.714;2023-08-06T04:05:13;16.80;98.20
22787;DHT22;63134;52.020;4.714;2023-08-06T04:07:58;16.80;98.10
22787;DHT22;63134;52.020;4.714;2023-08-06T04:10:45;16.90;98.30
22787;DHT22;63134;52.020;4.714;2023-08-06T04:13:31;16.80;97.90
22787;DHT22;63134;52.020;4.714;2023-08-06T04:16:17;16.80;96.50
22787;DHT22;63134;52.020;4.714;2023-08-06T04:19:03;16.60;95.50
22787;DHT22;63134;52.020;4.714;2023-08-06T04:21:48;16.30;95.20
22787;DHT22;63134;52.020;4.714;2023-08-06T04:24:34;16.00;95.60
22787;DHT22;63134;52.020;4.714;2023-08-06T04:27:19;15.90;96.00
22787;DHT22;63134;52.020;4.714;2023-08-06T04:30:07;15.70;96.70
22787;DHT22;63134;52.020;4.714;2023-08-06T04:32:57;15.70;97.30
22787;DHT22;63134;52.020;4.714;2023-08-06T04:35:44;15.50;97.60
22787;DHT22;63134;52.020;4.714;2023-08-06T04:38:30;15.50;97.90
22787;DHT22;63134;52.020;4.714;2023-08-06T04:41:16;15.50;98.40
22787;DHT22;63134;52.020;4.714;2023-08-06T04:44:27;15.50;98.90
22787;DHT22;63134;52.020;4.714;2023-08-06T04:47:12;15.50;99.40
22787;DHT22;63134;52.020;4.714;2023-08-06T04:50:00;15.50;99.70
22787;DHT22;63134;52.020;4.714;2023-08-06T04:52:46;15.50;99.80
22787;DHT22;63134;52.020;4.714;2023-08-06T04:55:31;15.50;99.90
22787;DHT22;63134;52.020;4.714;2023-08-06T04:58:17;15.50;99.90
22787;DHT22;63134;52.020;4.714;2023-08-06T05:01:02;15.60;99.90
22787;DHT22;63134;52.020;4.714;2023-08-06T05:03:49;15.60;99.90
22787;DHT22;63134;52.020;4.714;2023-08-06T05:06:34;15.60;99.90
22787;DHT22;63134;52.020;4.714;2023-08-06T05:09:20;15.60;99.90
22787;DHT22;63134;52.020;4.714;2023-08-06T05:12:06;15.60;99.90
22787;DHT22;63134;52.020;4.714;2023-08-06T05:14:51;15.60;99.80
22787;DHT22;63134;52.020;4.714;2023-08-06T05:17:37;15.60;99.60
22787;DHT22;63134;52.020;4.714;2023-08-06T05:20:22;15.60;99.40
22787;DHT22;63134;52.020;4.714;2023-08-06T05:23:08;15.60;99.50
22787;DHT22;63134;52.020;4.714;2023-08-06T05:25:53;15.60;99.10
22787;DHT22;63134;52.020;4.714;2023-08-06T05:28:39;15.60;99.40
22787;DHT22;63134;52.020;4.714;2023-08-06T05:31:29;15.60;99.20
22787;DHT22;63134;52.020;4.714;2023-08-06T05:34:15;15.60;99.60
22787;DHT22;63134;52.020;4.714;2023-08-06T05:37:00;15.60;99.90
22787;DHT22;63134;52.020;4.714;2023-08-06T05:39:46;15.70;99.90
22787;DHT22;63134;52.020;4.714;2023-08-06T05:42:31;15.80;99.90
22787;DHT22;63134;52.020;4.714;2023-08-06T05:45:17;15.80;99.90
22787;DHT22;63134;52.020;4.714;2023-08-06T05:48:03;15.90;99.90
22787;DHT22;63134;52.020;4.714;2023-08-06T05:50:51;15.90;99.90
22787;DHT22;63134;52.020;4.714;2023-08-06T05:53:40;16.00;99.90
22787;DHT22;63134;52.020;4.714;2023-08-06T05:56:27;16.00;99.90
22787;DHT22;63134;52.020;4.714;2023-08-06T05:59:12;16.10;99.70
22787;DHT22;63134;52.020;4.714;2023-08-06T06:01:58;16.10;99.20
22787;DHT22;63134;52.020;4.714;2023-08-06T06:04:44;16.10;99.00
22787;DHT22;63134;52.020;4.714;2023-08-06T06:07:29;16.20;99.00
22787;DHT22;63134;52.020;4.714;2023-08-06T06:10:15;16.20;98.90
22787;DHT22;63134;52.020;4.714;2023-08-06T06:13:00;16.20;98.70
22787;DHT22;63134;52.020;4.714;2023-08-06T06:15:49;16.20;98.60
22787;DHT22;63134;52.020;4.714;2023-08-06T06:18:36;16.20;98.50
22787;DHT22;63134;52.020;4.714;2023-08-06T06:21:27;16.10;98.40
22787;DHT22;63134;52.020;4.714;2023-08-06T06:24:13;16.10;98.80
22787;DHT22;63134;52.020;4.714;2023-08-06T06:26:58;16.00;98.60
22787;DHT22;63134;52.020;4.714;2023-08-06T06:29:44;16.00;98.90
22787;DHT22;63134;52.020;4.714;2023-08-06T06:32:30;16.00;99.30
22787;DHT22;63134;52.020;4.714;2023-08-06T06:35:15;16.00;99.80
22787;DHT22;63134;52.020;4.714;2023-08-06T06:38:01;16.20;99.90
22787;DHT22;63134;52.020;4.714;2023-08-06T06:40:56;16.20;99.90
22787;DHT22;63134;52.020;4.714;2023-08-06T06:43:45;16.30;99.90
22787;DHT22;63134;52.020;4.714;2023-08-06T06:46:32;16.40;99.90
22787;DHT22;63134;52.020;4.714;2023-08-06T06:49:20;16.40;99.80
22787;DHT22;63134;52.020;4.714;2023-08-06T06:52:06;16.50;99.80
22787;DHT22;63134;52.020;4.714;2023-08-06T06:54:51;16.50;99.80
22787;DHT22;63134;52.020;4.714;2023-08-06T06:57:37;16.50;99.40
22787;DHT22;63134;52.020;4.714;2023-08-06T07:00:22;16.50;99.20
22787;DHT22;63134;52.020;4.714;2023-08-06T07:03:08;16.50;99.40
22787;DHT22;63134;52.020;4.714;2023-08-06T07:05:57;16.50;99.80
22787;DHT22;63134;52.020;4.714;2023-08-06T07:08:46;16.60;99.60
22787;DHT22;63134;52.020;4.714;2023-08-06T07:11:32;16.50;99.50
22787;DHT22;63134;52.020;4.714;2023-08-06T07:14:17;16.60;99.40
22787;DHT22;63134;52.020;4.714;2023-08-06T07:17:03;16.60;99.40
22787;DHT22;63134;52.020;4.714;2023-08-06T07:19:49;16.70;99.50
22787;DHT22;63134;52.020;4.714;2023-08-06T07:22:34;16.70;99.20
22787;DHT22;63134;52.020;4.714;2023-08-06T07:25:20;16.70;99.40
22787;DHT22;63134;52.020;4.714;2023-08-06T07:28:09;16.80;99.50
22787;DHT22;63134;52.020;4.714;2023-08-06T07:30:55;16.80;99.00
22787;DHT22;63134;52.020;4.714;2023-08-06T07:33:41;16.90;99.00
22787;DHT22;63134;52.020;4.714;2023-08-06T07:36:26;16.90;99.00
22787;DHT22;63134;52.020;4.714;2023-08-06T07:39:12;16.90;98.90
22787;DHT22;63134;52.020;4.714;2023-08-06T07:42:02;16.90;98.80
22787;DHT22;63134;52.020;4.714;2023-08-06T07:44:56;17.00;98.30
22787;DHT22;63134;52.020;4.714;2023-08-06T07:47:41;17.00;98.60
22787;DHT22;63134;52.020;4.714;2023-08-06T07:50:28;17.10;98.50
22787;DHT22;63134;52.020;4.714;2023-08-06T07:53:14;17.10;98.20
22787;DHT22;63134;52.020;4.714;2023-08-06T07:55:59;17.20;98.50
22787;DHT22;63134;52.020;4.714;2023-08-06T07:58:47;17.20;98.20
22787;DHT22;63134;52.020;4.714;2023-08-06T08:01:33;17.20;97.80
22787;DHT22;63134;52.020;4.714;2023-08-06T08:04:18;17.20;97.30
22787;DHT22;63134;52.020;4.714;2023-08-06T08:07:07;17.20;97.00
22787;DHT22;63134;52.020;4.714;2023-08-06T08:09:52;17.20;97.20
22787;DHT22;63134;52.020;4.714;2023-08-06T08:12:38;17.20;97.50
22787;DHT22;63134;52.020;4.714;2023-08-06T08:15:24;17.20;97.40
22787;DHT22;63134;52.020;4.714;2023-08-06T08:18:13;17.30;97.90
22787;DHT22;63134;52.020;4.714;2023-08-06T08:20:58;17.30;97.50
22787;DHT22;63134;52.020;4.714;2023-08-06T08:23:44;17.30;97.60
22787;DHT22;63134;52.020;4.714;2023-08-06T08:26:30;17.40;97.60
22787;DHT22;63134;52.020;4.714;2023-08-06T08:29:15;17.30;97.30
22787;DHT22;63134;52.020;4.714;2023-08-06T08:32:01;17.40;97.00
22787;DHT22;63134;52.020;4.714;2023-08-06T08:34:47;17.40;96.80
22787;DHT22;63134;52.020;4.714;2023-08-06T08:37:36;17.50;96.60
22787;DHT22;63134;52.020;4.714;2023-08-06T08:40:23;17.60;96.40
22787;DHT22;63134;52.020;4.714;2023-08-06T08:43:11;17.70;96.30
22787;DHT22;63134;52.020;4.714;2023-08-06T08:45:57;17.90;96.10
22787;DHT22;63134;52.020;4.714;2023-08-06T08:48:44;18.00;95.30
22787;DHT22;63134;52.020;4.714;2023-08-06T08:51:30;18.20;95.00
22787;DHT22;63134;52.020;4.714;2023-08-06T08:54:17;18.40;94.60
22787;DHT22;63134;52.020;4.714;2023-08-06T08:57:03;18.60;94.40
22787;DHT22;63134;52.020;4.714;2023-08-06T08:59:49;18.90;93.80
22787;DHT22;63134;52.020;4.714;2023-08-06T09:02:36;19.00;92.90
22787;DHT22;63134;52.020;4.714;2023-08-06T09:05:23;19.10;92.30
22787;DHT22;63134;52.020;4.714;2023-08-06T09:08:17;19.10;91.90
22787;DHT22;63134;52.020;4.714;2023-08-06T09:11:05;19.10;91.60
22787;DHT22;63134;52.020;4.714;2023-08-06T09:13:50;19.00;91.10
22787;DHT22;63134;52.020;4.714;2023-08-06T09:16:36;19.00;90.90
22787;DHT22;63134;52.020;4.714;2023-08-06T09:19:22;18.90;91.10
22787;DHT22;63134;52.020;4.714;2023-08-06T09:22:08;19.00;90.70
22787;DHT22;63134;52.020;4.714;2023-08-06T09:24:58;19.10;90.50
22787;DHT22;63134;52.020;4.714;2023-08-06T09:27:46;19.30;90.50
22787;DHT22;63134;52.020;4.714;2023-08-06T09:30:35;19.40;90.30
22787;DHT22;63134;52.020;4.714;2023-08-06T09:33:22;19.50;89.90
22787;DHT22;63134;52.020;4.714;2023-08-06T09:36:09;19.60;87.80
22787;DHT22;63134;52.020;4.714;2023-08-06T09:38:55;19.60;87.70
22787;DHT22;63134;52.020;4.714;2023-08-06T09:41:41;19.70;87.60
22787;DHT22;63134;52.020;4.714;2023-08-06T09:44:32;19.70;86.70
22787;DHT22;63134;52.020;4.714;2023-08-06T09:47:18;19.80;86.10
22787;DHT22;63134;52.020;4.714;2023-08-06T09:50:06;19.80;85.50
22787;DHT22;63134;52.020;4.714;2023-08-06T09:52:53;19.90;84.90
22787;DHT22;63134;52.020;4.714;2023-08-06T09:55:39;20.00;83.90
22787;DHT22;63134;52.020;4.714;2023-08-06T09:58:25;20.20;84.80
22787;DHT22;63134;52.020;4.714;2023-08-06T10:01:12;20.60;83.50
22787;DHT22;63134;52.020;4.714;2023-08-06T10:03:58;21.10;82.20
22787;DHT22;63134;52.020;4.714;2023-08-06T10:06:47;21.50;81.00
22787;DHT22;63134;52.020;4.714;2023-08-06T10:09:33;21.80;77.40
22787;DHT22;63134;52.020;4.714;2023-08-06T10:12:19;22.00;76.40
22787;DHT22;63134;52.020;4.714;2023-08-06T10:15:09;22.00;75.60
22787;DHT22;63134;52.020;4.714;2023-08-06T10:18:00;22.20;75.00
22787;DHT22;63134;52.020;4.714;2023-08-06T10:20:51;22.20;73.30
22787;DHT22;63134;52.020;4.714;2023-08-06T10:23:37;22.40;72.40
22787;DHT22;63134;52.020;4.714;2023-08-06T10:26:27;22.50;72.20
22787;DHT22;63134;52.020;4.714;2023-08-06T10:29:34;22.70;70.00
22787;DHT22;63134;52.020;4.714;2023-08-06T10:32:20;22.60;69.00
22787;DHT22;63134;52.020;4.714;2023-08-06T10:35:37;22.50;69.10
22787;DHT22;63134;52.020;4.714;2023-08-06T10:38:25;22.60;68.80
22787;DHT22;63134;52.020;4.714;2023-08-06T10:44:06;22.40;66.70
22787;DHT22;63134;52.020;4.714;2023-08-06T10:46:55;22.50;66.20
22787;DHT22;63134;52.020;4.714;2023-08-06T10:49:40;22.50;65.80
22787;DHT22;63134;52.020;4.714;2023-08-06T10:52:26;22.60;66.00
22787;DHT22;63134;52.020;4.714;2023-08-06T10:55:18;22.70;64.80
22787;DHT22;63134;52.020;4.714;2023-08-06T10:58:07;22.60;64.10
22787;DHT22;63134;52.020;4.714;2023-08-06T11:00:52;22.50;62.90
22787;DHT22;63134;52.020;4.714;2023-08-06T11:03:38;22.60;63.50
22787;DHT22;63134;52.020;4.714;2023-08-06T11:06:24;22.90;63.30
22787;DHT22;63134;52.020;4.714;2023-08-06T11:09:11;23.20;63.70
22787;DHT22;63134;52.020;4.714;2023-08-06T11:11:56;23.30;62.30
22787;DHT22;63134;52.020;4.714;2023-08-06T11:14:42;23.10;59.20
22787;DHT22;63134;52.020;4.714;2023-08-06T11:17:29;23.00;59.40
22787;DHT22;63134;52.020;4.714;2023-08-06T11:20:15;23.00;58.40
22787;DHT22;63134;52.020;4.714;2023-08-06T11:23:02;23.20;58.20
22787;DHT22;63134;52.020;4.714;2023-08-06T11:25:48;23.30;58.40
22787;DHT22;63134;52.020;4.714;2023-08-06T11:28:34;23.60;58.20
22787;DHT22;63134;52.020;4.714;2023-08-06T11:31:25;23.70;57.30
22787;DHT22;63134;52.020;4.714;2023-08-06T11:34:11;23.60;58.90
22787;DHT22;63134;52.020;4.714;2023-08-06T11:37:00;23.80;58.80
22787;DHT22;63134;52.020;4.714;2023-08-06T11:39:49;24.40;57.80
22787;DHT22;63134;52.020;4.714;2023-08-06T11:42:36;24.60;56.00
22787;DHT22;63134;52.020;4.714;2023-08-06T11:45:23;24.70;56.10
22787;DHT22;63134;52.020;4.714;2023-08-06T11:48:09;25.00;53.30
22787;DHT22;63134;52.020;4.714;2023-08-06T11:50:55;24.70;53.30
22787;DHT22;63134;52.020;4.714;2023-08-06T11:53:48;24.60;54.00
22787;DHT22;63134;52.020;4.714;2023-08-06T11:56:37;24.70;53.50
22787;DHT22;63134;52.020;4.714;2023-08-06T11:59:23;24.70;53.80
22787;DHT22;63134;52.020;4.714;2023-08-06T12:02:10;25.30;53.30
22787;DHT22;63134;52.020;4.714;2023-08-06T12:05:04;26.30;50.80
22787;DHT22;63134;52.020;4.714;2023-08-06T12:07:55;26.80;49.70
22787;DHT22;63134;52.020;4.714;2023-08-06T12:10:40;27.60;47.90
22787;DHT22;63134;52.020;4.714;2023-08-06T12:13:26;28.50;48.50
22787;DHT22;63134;52.020;4.714;2023-08-06T12:16:11;28.60;46.80
22787;DHT22;63134;52.020;4.714;2023-08-06T12:18:58;27.50;48.30
22787;DHT22;63134;52.020;4.714;2023-08-06T12:21:44;26.60;50.00
22787;DHT22;63134;52.020;4.714;2023-08-06T12:24:29;26.40;51.00
22787;DHT22;63134;52.020;4.714;2023-08-06T12:27:17;25.90;52.40
22787;DHT22;63134;52.020;4.714;2023-08-06T12:30:04;25.70;52.70
22787;DHT22;63134;52.020;4.714;2023-08-06T12:32:49;25.60;53.10
22787;DHT22;63134;52.020;4.714;2023-08-06T12:35:37;25.40;53.70
22787;DHT22;63134;52.020;4.714;2023-08-06T12:38:23;25.00;54.10
22787;DHT22;63134;52.020;4.714;2023-08-06T12:41:10;24.50;55.10
22787;DHT22;63134;52.020;4.714;2023-08-06T12:43:55;24.20;56.90
22787;DHT22;63134;52.020;4.714;2023-08-06T12:46:41;24.50;57.90
22787;DHT22;63134;52.020;4.714;2023-08-06T12:49:27;24.90;56.80
22787;DHT22;63134;52.020;4.714;2023-08-06T12:52:13;25.10;55.80
22787;DHT22;63134;52.020;4.714;2023-08-06T12:55:00;25.20;55.60
22787;DHT22;63134;52.020;4.714;2023-08-06T12:57:46;25.60;54.30
22787;DHT22;63134;52.020;4.714;2023-08-06T13:00:43;25.60;54.90
22787;DHT22;63134;52.020;4.714;2023-08-06T13:03:28;25.90;54.90
22787;DHT22;63134;52.020;4.714;2023-08-06T13:06:17;25.80;54.60
22787;DHT22;63134;52.020;4.714;2023-08-06T13:09:03;26.10;53.50
22787;DHT22;63134;52.020;4.714;2023-08-06T13:11:49;26.40;53.00
22787;DHT22;63134;52.020;4.714;2023-08-06T13:14:36;26.40;52.90
22787;DHT22;63134;52.020;4.714;2023-08-06T13:17:21;26.60;52.90
22787;DHT22;63134;52.020;4.714;2023-08-06T13:20:07;26.50;51.90
22787;DHT22;63134;52.020;4.714;2023-08-06T13:22:54;25.60;51.80
22787;DHT22;63134;52.020;4.714;2023-08-06T13:25:40;24.00;56.90
22787;DHT22;63134;52.020;4.714;2023-08-06T13:28:26;22.60;62.60
22787;DHT22;63134;52.020;4.714;2023-08-06T13:31:11;21.50;66.70
22787;DHT22;63134;52.020;4.714;2023-08-06T13:33:57;20.60;71.20
22787;DHT22;63134;52.020;4.714;2023-08-06T13:36:45;19.90;74.10
22787;DHT22;63134;52.020;4.714;2023-08-06T13:39:31;19.40;77.40
22787;DHT22;63134;52.020;4.714;2023-08-06T13:42:17;18.90;79.00
22787;DHT22;63134;52.020;4.714;2023-08-06T13:45:03;18.60;81.20
22787;DHT22;63134;52.020;4.714;2023-08-06T13:47:55;18.50;82.90
22787;DHT22;63134;52.020;4.714;2023-08-06T13:50:40;18.70;84.60
22787;DHT22;63134;52.020;4.714;2023-08-06T13:53:26;19.00;85.20
22787;DHT22;63134;52.020;4.714;2023-08-06T13:56:15;19.40;85.60
22787;DHT22;63134;52.020;4.714;2023-08-06T13:59:03;19.70;85.10
22787;DHT22;63134;52.020;4.714;2023-08-06T14:01:55;19.90;85.30
22787;DHT22;63134;52.020;4.714;2023-08-06T14:04:43;20.50;85.70
22787;DHT22;63134;52.020;4.714;2023-08-06T14:07:28;20.50;81.50
22787;DHT22;63134;52.020;4.714;2023-08-06T14:10:14;20.00;80.20
22787;DHT22;63134;52.020;4.714;2023-08-06T14:12:59;19.50;82.10
22787;DHT22;63134;52.020;4.714;2023-08-06T14:15:54;19.10;83.60
22787;DHT22;63134;52.020;4.714;2023-08-06T14:18:40;19.10;83.50
22787;DHT22;63134;52.020;4.714;2023-08-06T14:21:26;18.90;83.20
22787;DHT22;63134;52.020;4.714;2023-08-06T14:24:12;18.70;84.60
22787;DHT22;63134;52.020;4.714;2023-08-06T14:26:58;18.70;85.20
22787;DHT22;63134;52.020;4.714;2023-08-06T14:29:43;18.70;86.20
22787;DHT22;63134;52.020;4.714;2023-08-06T14:32:29;18.80;86.40
22787;DHT22;63134;52.020;4.714;2023-08-06T14:35:14;18.70;86.50
22787;DHT22;63134;52.020;4.714;2023-08-06T14:38:00;18.40;87.10
22787;DHT22;63134;52.020;4.714;2023-08-06T14:40:48;18.30;88.40
22787;DHT22;63134;52.020;4.714;2023-08-06T14:43:34;18.70;89.30
22787;DHT22;63134;52.020;4.714;2023-08-06T14:46:20;18.80;87.50
22787;DHT22;63134;52.020;4.714;2023-08-06T14:49:05;18.50;87.30
22787;DHT22;63134;52.020;4.714;2023-08-06T14:51:51;18.50;87.70
22787;DHT22;63134;52.020;4.714;2023-08-06T14:54:36;18.40;86.40
22787;DHT22;63134;52.020;4.714;2023-08-06T14:57:24;18.10;85.50
22787;DHT22;63134;52.020;4.714;2023-08-06T15:00:13;17.80;86.90
22787;DHT22;63134;52.020;4.714;2023-08-06T15:02:58;17.60;88.30
22787;DHT22;63134;52.020;4.714;2023-08-06T15:05:47;17.50;89.40
22787;DHT22;63134;52.020;4.714;2023-08-06T15:08:32;17.40;90.00
22787;DHT22;63134;52.020;4.714;2023-08-06T15:11:18;17.50;89.70
22787;DHT22;63134;52.020;4.714;2023-08-06T15:14:03;17.40;90.30
22787;DHT22;63134;52.020;4.714;2023-08-06T15:16:55;17.30;90.60
22787;DHT22;63134;52.020;4.714;2023-08-06T15:19:42;17.20;90.90
22787;DHT22;63134;52.020;4.714;2023-08-06T15:22:28;17.10;90.50
22787;DHT22;63134;52.020;4.714;2023-08-06T15:25:17;17.00;90.70
22787;DHT22;63134;52.020;4.714;2023-08-06T15:28:02;16.90;91.00
22787;DHT22;63134;52.020;4.714;2023-08-06T15:30:49;16.80;91.50
22787;DHT22;63134;52.020;4.714;2023-08-06T15:33:35;16.80;91.70
22787;DHT22;63134;52.020;4.714;2023-08-06T15:36:21;16.80;91.80
22787;DHT22;63134;52.020;4.714;2023-08-06T15:39:06;16.80;91.90
22787;DHT22;63134;52.020;4.714;2023-08-06T15:41:52;16.80;91.90
22787;DHT22;63134;52.020;4.714;2023-08-06T15:44:40;16.70;92.20
22787;DHT22;63134;52.020;4.714;2023-08-06T15:47:26;16.70;92.30
22787;DHT22;63134;52.020;4.714;2023-08-06T15:50:11;16.80;92.30
22787;DHT22;63134;52.020;4.714;2023-08-06T15:52:57;16.90;92.40
22787;DHT22;63134;52.020;4.714;2023-08-06T15:55:43;17.10;92.20
22787;DHT22;63134;52.020;4.714;2023-08-06T15:58:28;17.20;92.20
22787;DHT22;63134;52.020;4.714;2023-08-06T16:01:14;17.20;92.40
22787;DHT22;63134;52.020;4.714;2023-08-06T16:03:59;17.20;92.00
22787;DHT22;63134;52.020;4.714;2023-08-06T16:06:45;17.40;91.60
22787;DHT22;63134;52.020;4.714;2023-08-06T16:09:30;17.70;91.50
22787;DHT22;63134;52.020;4.714;2023-08-06T16:12:17;18.60;91.70
22787;DHT22;63134;52.020;4.714;2023-08-06T16:15:05;19.90;90.60
22787;DHT22;63134;52.020;4.714;2023-08-06T16:17:51;20.40;83.90
22787;DHT22;63134;52.020;4.714;2023-08-06T16:20:44;20.10;80.00
22787;DHT22;63134;52.020;4.714;2023-08-06T16:23:30;19.50;79.60
22787;DHT22;63134;52.020;4.714;2023-08-06T16:26:15;19.40;80.40
22787;DHT22;63134;52.020;4.714;2023-08-06T16:29:00;19.30;79.20
22787;DHT22;63134;52.020;4.714;2023-08-06T16:31:48;19.30;75.60
22787;DHT22;63134;52.020;4.714;2023-08-06T16:34:34;19.30;76.50
22787;DHT22;63134;52.020;4.714;2023-08-06T16:37:20;20.00;75.40
22787;DHT22;63134;52.020;4.714;2023-08-06T16:40:06;21.10;72.00
22787;DHT22;63134;52.020;4.714;2023-08-06T16:42:52;20.80;68.90
22787;DHT22;63134;52.020;4.714;2023-08-06T16:45:37;20.20;69.10
22787;DHT22;63134;52.020;4.714;2023-08-06T16:48:23;19.80;70.50
22787;DHT22;63134;52.020;4.714;2023-08-06T16:51:13;19.30;72.40
22787;DHT22;63134;52.020;4.714;2023-08-06T16:54:01;19.10;74.20
22787;DHT22;63134;52.020;4.714;2023-08-06T16:56:47;19.00;75.60
22787;DHT22;63134;52.020;4.714;2023-08-06T16:59:32;19.20;75.40
22787;DHT22;63134;52.020;4.714;2023-08-06T17:02:17;19.10;74.60
22787;DHT22;63134;52.020;4.714;2023-08-06T17:05:04;18.80;75.70
22787;DHT22;63134;52.020;4.714;2023-08-06T17:07:50;18.70;77.10
22787;DHT22;63134;52.020;4.714;2023-08-06T17:10:37;18.60;76.80
22787;DHT22;63134;52.020;4.714;2023-08-06T17:13:26;18.70;75.70
22787;DHT22;63134;52.020;4.714;2023-08-06T17:16:12;19.30;75.80
22787;DHT22;63134;52.020;4.714;2023-08-06T17:18:58;20.60;73.10
22787;DHT22;63134;52.020;4.714;2023-08-06T17:21:43;20.90;70.40
22787;DHT22;63134;52.020;4.714;2023-08-06T17:24:29;20.40;69.00
22787;DHT22;63134;52.020;4.714;2023-08-06T17:27:15;19.90;69.70
22787;DHT22;63134;52.020;4.714;2023-08-06T17:30:00;19.40;71.30
22787;DHT22;63134;52.020;4.714;2023-08-06T17:32:46;18.90;72.80
22787;DHT22;63134;52.020;4.714;2023-08-06T17:35:34;18.70;74.60
22787;DHT22;63134;52.020;4.714;2023-08-06T17:38:20;18.40;75.90
22787;DHT22;63134;52.020;4.714;2023-08-06T17:41:06;18.30;76.90